Terminal Aerodrome Forecast
Issued by NWS

Home | Current Version | Previous Version | Text Only | Print | Product List | Glossary On
Versions: 1 2 3 4 5 6 7 8 9 10 11 12 13 14
000
FTUS44 KLIX 200500
TAFGPT
TAF
KGPT 200530Z 2006/2106 VRB03KT P6SM SCT250
     FM201500 22005KT P6SM SCT040
     FM210000 21004KT P6SM SCT250=

USA.gov is the U.S. government's official web portal to all federal, state and local government web resources and services.